Time;durP1;ratioP1;P1;durP2;ratioP2;P2;SDS_P1;SDS_P2;PMS_P1;PMS_P2;Temp;Humidity;BMP_temperature;BMP_pressure;BME280_temperature;BME280_humidity;BME280_pressure;Samples;Min_cycle;Max_cycle;Signal;HPM_P1;HPM_P2
2023/05/04 00:01:09;;;;;;;12.75;4.97;;;5.20;81.00;;;;;;5012185;28;20030;-74
2023/05/04 00:03:35;;;;;;;11.68;5.03;;;5.20;80.90;;;;;;5013806;28;20673;-74
2023/05/04 00:06:01;;;;;;;10.43;4.75;;;5.20;80.90;;;;;;5000674;28;20366;-74
2023/05/04 00:08:27;;;;;;;11.38;5.07;;;5.20;81.00;;;;;;5008889;28;20049;-74
2023/05/04 00:10:54;;;;;;;14.90;5.10;;;5.10;81.10;;;;;;5011052;28;20405;-73
2023/05/04 00:13:20;;;;;;;9.45;4.88;;;5.10;81.40;;;;;;5009864;28;20041;-73
2023/05/04 00:15:46;;;;;;;11.52;5.40;;;5.10;81.60;;;;;;5008534;28;20378;-74
2023/05/04 00:18:11;;;;;;;12.85;5.07;;;5.00;81.50;;;;;;5011731;28;20046;-74
2023/05/04 00:20:37;;;;;;;14.52;5.63;;;5.00;81.60;;;;;;4992678;28;20042;-74
2023/05/04 00:23:03;;;;;;;11.23;5.07;;;4.90;81.80;;;;;;5010233;28;20712;-74
2023/05/04 00:25:28;;;;;;;10.55;5.45;;;4.80;81.90;;;;;;5013781;28;20173;-74
2023/05/04 00:27:54;;;;;;;9.73;5.03;;;4.80;82.20;;;;;;5009225;28;20045;-74
2023/05/04 00:30:20;;;;;;;11.07;4.80;;;4.80;82.40;;;;;;5010131;28;20046;-74
2023/05/04 00:32:45;;;;;;;11.23;5.20;;;4.80;82.40;;;;;;5008407;28;20532;-74
2023/05/04 00:35:11;;;;;;;11.07;5.05;;;4.70;82.80;;;;;;5009980;28;20061;-74
2023/05/04 00:37:37;;;;;;;11.57;4.88;;;4.70;82.80;;;;;;4991598;28;20060;-75
2023/05/04 00:40:03;;;;;;;13.73;5.47;;;4.70;83.50;;;;;;5007780;28;20045;-74
2023/05/04 00:42:28;;;;;;;13.45;5.65;;;4.60;83.40;;;;;;5004880;28;20045;-74
2023/05/04 00:44:54;;;;;;;9.05;4.93;;;4.60;83.40;;;;;;5015261;28;20366;-74
2023/05/04 00:47:20;;;;;;;12.10;5.47;;;4.60;83.60;;;;;;5015063;28;20041;-74
2023/05/04 00:49:46;;;;;;;11.40;4.55;;;4.50;83.50;;;;;;5008582;28;20045;-73
2023/05/04 00:52:13;;;;;;;10.57;4.95;;;4.50;83.70;;;;;;5016142;28;20099;-73
2023/05/04 00:54:41;;;;;;;11.23;5.22;;;4.50;83.90;;;;;;5011257;28;20064;-73
2023/05/04 00:57:07;;;;;;;10.45;4.95;;;4.50;84.00;;;;;;5021444;28;20755;-74
2023/05/04 00:59:33;;;;;;;9.98;5.00;;;4.40;84.20;;;;;;5011773;28;20040;-73
2023/05/04 01:01:58;;;;;;;12.95;5.55;;;4.50;84.20;;;;;;5013399;28;20155;-74
2023/05/04 01:04:24;;;;;;;10.65;5.40;;;4.40;84.70;;;;;;5012492;28;20073;-73
2023/05/04 01:06:50;;;;;;;11.65;5.75;;;4.40;84.80;;;;;;5014695;28;20037;-73
2023/05/04 01:09:37;;;;;;;12.55;5.00;;;4.40;84.80;;;;;;5014754;28;20056;-73
2023/05/04 01:12:11;;;;;;;10.88;5.40;;;4.40;85.70;;;;;;4998729;28;20452;-73
2023/05/04 01:14:37;;;;;;;13.05;5.35;;;4.40;86.40;;;;;;5015058;28;20091;-73
2023/05/04 01:17:05;;;;;;;8.95;5.18;;;4.40;85.40;;;;;;4999091;28;20041;-74
2023/05/04 01:19:31;;;;;;;14.40;6.10;;;4.40;85.30;;;;;;5011536;28;20400;-73
2023/05/04 01:21:57;;;;;;;11.55;5.60;;;4.40;85.50;;;;;;5011407;28;20030;-73
2023/05/04 01:24:24;;;;;;;11.70;5.28;;;4.50;85.60;;;;;;5015405;28;20029;-73
2023/05/04 01:27:01;;;;;;;12.48;5.15;;;4.40;85.90;;;;;;5016166;28;20033;-74
2023/05/04 01:29:33;;;;;;;13.27;6.00;;;4.40;86.30;;;;;;5015065;28;20047;-73
2023/05/04 01:32:01;;;;;;;11.88;5.75;;;4.30;86.20;;;;;;5013873;28;20088;-74
2023/05/04 01:34:26;;;;;;;12.38;6.05;;;4.30;85.90;;;;;;5011911;28;20064;-73
2023/05/04 01:36:53;;;;;;;10.80;5.93;;;4.30;86.10;;;;;;5008684;28;20038;-74
2023/05/04 01:39:19;;;;;;;10.75;5.05;;;4.30;86.50;;;;;;5006387;28;20053;-74
2023/05/04 01:41:44;;;;;;;10.63;5.07;;;4.30;86.50;;;;;;5006526;28;20169;-73
2023/05/04 01:44:10;;;;;;;10.85;5.30;;;4.40;86.60;;;;;;4993739;28;20083;-74
2023/05/04 01:46:35;;;;;;;10.70;5.30;;;4.40;86.70;;;;;;4989763;28;20048;-74
2023/05/04 01:49:01;;;;;;;11.98;5.47;;;4.40;86.50;;;;;;4995970;28;20080;-74
2023/05/04 01:51:26;;;;;;;14.82;5.25;;;4.40;86.60;;;;;;5005540;28;20044;-73
2023/05/04 01:53:52;;;;;;;14.27;6.13;;;4.50;86.70;;;;;;5006661;28;20372;-72
2023/05/04 01:56:17;;;;;;;12.65;5.40;;;4.50;86.90;;;;;;5009852;28;20088;-74
2023/05/04 01:58:43;;;;;;;14.25;7.05;;;4.50;86.80;;;;;;5006743;28;20042;-73
2023/05/04 02:01:09;;;;;;;10.63;5.18;;;4.40;86.90;;;;;;5008983;28;20034;-73
2023/05/04 02:03:34;;;;;;;16.02;6.38;;;4.50;87.40;;;;;;5006494;28;20038;-74
2023/05/04 02:06:00;;;;;;;12.70;5.57;;;4.50;86.90;;;;;;4992748;28;20026;-73
2023/05/04 02:08:25;;;;;;;13.40;6.03;;;4.60;87.00;;;;;;5010807;28;20072;-73
2023/05/04 02:10:51;;;;;;;14.88;6.72;;;4.60;87.00;;;;;;5026605;28;20373;-74
2023/05/04 02:13:18;;;;;;;15.88;5.82;;;4.60;87.70;;;;;;5023834;28;20045;-73
2023/05/04 02:15:43;;;;;;;11.93;5.80;;;4.70;86.90;;;;;;5016592;28;20045;-73
2023/05/04 02:18:09;;;;;;;10.18;5.55;;;4.70;86.90;;;;;;4997044;28;20052;-73
2023/05/04 02:20:34;;;;;;;12.63;5.93;;;4.70;86.70;;;;;;4996336;28;20052;-73
2023/05/04 02:23:00;;;;;;;12.18;5.60;;;4.60;86.60;;;;;;5004839;28;20551;-73
2023/05/04 02:25:26;;;;;;;12.18;5.53;;;4.60;86.70;;;;;;5021290;28;20585;-73
2023/05/04 02:27:51;;;;;;;12.32;5.78;;;4.60;86.70;;;;;;4996022;28;20034;-73
2023/05/04 02:30:17;;;;;;;11.50;5.93;;;4.70;86.80;;;;;;5014122;28;20072;-73
2023/05/04 02:32:43;;;;;;;14.85;5.78;;;4.60;86.90;;;;;;5018828;28;20400;-73
2023/05/04 02:35:08;;;;;;;15.23;6.07;;;4.60;86.80;;;;;;5005955;28;20872;-73
2023/05/04 02:37:34;;;;;;;14.63;5.40;;;4.60;86.90;;;;;;5037098;28;20191;-74
2023/05/04 02:40:00;;;;;;;10.60;5.40;;;4.60;87.20;;;;;;5012923;28;20061;-74
2023/05/04 02:42:26;;;;;;;11.10;5.32;;;4.60;87.20;;;;;;5010018;28;20545;-73
2023/05/04 02:44:51;;;;;;;12.45;5.60;;;4.60;87.30;;;;;;5026263;28;20037;-73
2023/05/04 02:47:17;;;;;;;10.88;5.28;;;4.60;87.30;;;;;;4989162;28;20132;-73
2023/05/04 02:49:42;;;;;;;13.45;6.13;;;4.60;87.30;;;;;;5043630;28;20401;-73
2023/05/04 02:52:08;;;;;;;11.88;5.50;;;4.60;87.60;;;;;;5004560;28;20399;-73
2023/05/04 02:54:34;;;;;;;12.15;4.97;;;4.60;87.40;;;;;;5007181;28;20486;-73
2023/05/04 02:56:59;;;;;;;12.13;5.40;;;4.60;87.50;;;;;;5007001;28;20537;-73
2023/05/04 02:59:25;;;;;;;13.00;5.80;;;4.60;87.50;;;;;;5002364;28;20129;-73
2023/05/04 03:01:51;;;;;;;10.75;5.53;;;4.60;87.50;;;;;;5010300;28;20041;-73
2023/05/04 03:04:16;;;;;;;13.18;6.00;;;4.60;87.60;;;;;;5009074;28;20045;-73
2023/05/04 03:06:42;;;;;;;13.55;5.80;;;4.60;87.60;;;;;;5011179;28;20034;-73
2023/05/04 03:09:08;;;;;;;11.55;5.30;;;4.60;88.00;;;;;;5008749;28;20563;-73
2023/05/04 03:11:34;;;;;;;12.18;5.43;;;4.60;88.00;;;;;;5000056;28;20044;-73
2023/05/04 03:13:59;;;;;;;16.85;6.20;;;4.60;88.20;;;;;;5003469;28;20037;-73
2023/05/04 03:16:25;;;;;;;13.40;5.95;;;4.60;88.00;;;;;;5010595;28;20065;-73
2023/05/04 03:18:51;;;;;;;13.95;6.07;;;4.60;88.10;;;;;;5016976;28;20052;-73
2023/05/04 03:21:16;;;;;;;16.48;6.28;;;4.70;88.30;;;;;;5017197;28;20534;-73
2023/05/04 03:23:42;;;;;;;14.43;6.25;;;4.70;88.80;;;;;;5022396;28;20489;-73
2023/05/04 03:26:07;;;;;;;14.10;6.03;;;4.70;88.60;;;;;;5007998;28;20068;-73
2023/05/04 03:28:33;;;;;;;13.40;6.43;;;4.70;88.40;;;;;;4989629;28;20054;-73
2023/05/04 03:30:58;;;;;;;13.82;6.38;;;4.70;88.90;;;;;;5008644;28;20124;-73
2023/05/04 03:33:24;;;;;;;18.98;7.57;;;4.70;88.30;;;;;;5004208;28;20048;-73
2023/05/04 03:35:50;;;;;;;16.00;6.70;;;4.70;88.40;;;;;;5008349;28;20077;-73
2023/05/04 03:38:15;;;;;;;13.23;7.18;;;4.70;88.40;;;;;;5006412;28;20054;-73
2023/05/04 03:40:41;;;;;;;15.48;6.55;;;4.70;88.50;;;;;;5006534;28;20058;-74
2023/05/04 03:43:06;;;;;;;18.20;6.97;;;4.70;89.50;;;;;;5007369;28;20061;-73
2023/05/04 03:45:32;;;;;;;15.85;7.57;;;4.70;88.50;;;;;;4992172;28;20034;-73
2023/05/04 03:47:57;;;;;;;14.15;6.85;;;4.80;88.40;;;;;;5018993;28;20095;-73
2023/05/04 03:50:23;;;;;;;12.75;6.90;;;4.80;88.40;;;;;;5018806;28;20531;-72
2023/05/04 03:52:49;;;;;;;16.10;7.45;;;4.80;88.40;;;;;;4992780;28;20128;-72
2023/05/04 03:55:15;;;;;;;11.25;5.93;;;4.90;88.00;;;;;;5012590;28;20112;-73
2023/05/04 03:57:40;;;;;;;15.35;7.15;;;4.90;88.00;;;;;;5016670;28;20125;-73
2023/05/04 04:00:07;;;;;;;17.90;7.43;;;4.90;87.80;;;;;;5010826;28;20038;-74
2023/05/04 04:02:33;;;;;;;16.58;6.57;;;4.90;87.90;;;;;;5011042;28;20037;-72
2023/05/04 04:04:59;;;;;;;13.20;6.78;;;5.00;87.90;;;;;;5015029;28;20036;-73
2023/05/04 04:07:24;;;;;;;13.70;6.43;;;5.00;87.70;;;;;;5016533;28;20080;-73
2023/05/04 04:09:51;;;;;;;16.42;6.57;;;5.00;88.10;;;;;;5022857;28;20128;-73
2023/05/04 04:12:19;;;;;;;12.95;6.28;;;5.00;88.00;;;;;;5029412;28;20049;-73
2023/05/04 04:14:47;;;;;;;15.05;7.95;;;5.10;88.00;;;;;;5014840;28;20041;-73
2023/05/04 04:17:13;;;;;;;16.50;6.72;;;5.10;88.00;;;;;;4999998;28;20072;-72
2023/05/04 04:19:39;;;;;;;19.52;7.40;;;5.10;87.90;;;;;;5016807;28;20151;-73
2023/05/04 04:22:05;;;;;;;15.95;7.15;;;5.10;88.00;;;;;;5010784;28;20116;-73
2023/05/04 04:24:31;;;;;;;17.05;8.15;;;5.10;88.20;;;;;;5023225;28;20471;-74
2023/05/04 04:26:56;;;;;;;12.93;7.60;;;5.10;88.20;;;;;;5014066;28;20037;-74
2023/05/04 04:29:22;;;;;;;14.40;6.35;;;5.20;88.30;;;;;;5002887;28;20041;-73
2023/05/04 04:31:48;;;;;;;13.57;6.18;;;5.20;88.50;;;;;;4994631;28;20084;-74
2023/05/04 04:34:13;;;;;;;21.60;8.32;;;5.20;88.50;;;;;;5019420;28;20477;-72
2023/05/04 04:36:39;;;;;;;14.80;7.18;;;5.20;89.00;;;;;;5017391;28;20052;-73
2023/05/04 04:39:05;;;;;;;16.13;7.28;;;5.20;88.50;;;;;;5002830;28;20082;-73
2023/05/04 04:41:30;;;;;;;14.10;7.03;;;5.20;88.30;;;;;;5018789;28;20030;-73
2023/05/04 04:43:57;;;;;;;16.17;6.63;;;5.30;88.40;;;;;;5017014;28;20038;-73
2023/05/04 04:46:22;;;;;;;16.08;7.38;;;5.30;88.60;;;;;;5009873;28;20261;-73
2023/05/04 04:48:48;;;;;;;15.70;7.15;;;5.30;88.20;;;;;;4997251;28;20046;-73
2023/05/04 04:51:13;;;;;;;18.40;7.20;;;5.30;88.20;;;;;;5022788;28;20405;-73
2023/05/04 04:53:39;;;;;;;11.82;6.53;;;5.40;88.10;;;;;;5017222;28;20088;-73
2023/05/04 04:56:06;;;;;;;17.33;7.80;;;5.40;88.20;;;;;;5008840;28;20049;-73
2023/05/04 04:58:32;;;;;;;18.10;6.90;;;5.50;88.10;;;;;;4998825;28;20045;-73
2023/05/04 05:00:58;;;;;;;19.58;7.78;;;5.50;87.90;;;;;;5017952;28;20563;-73
2023/05/04 05:03:24;;;;;;;13.55;7.22;;;5.50;88.00;;;;;;4997372;28;20037;-73
2023/05/04 05:05:49;;;;;;;15.63;7.60;;;5.60;88.30;;;;;;5016289;28;20065;-74
2023/05/04 05:08:15;;;;;;;15.48;6.82;;;5.60;88.20;;;;;;5013427;28;20393;-73
2023/05/04 05:10:41;;;;;;;15.25;7.53;;;5.60;88.10;;;;;;5014267;28;20209;-73
2023/05/04 05:13:07;;;;;;;12.98;6.68;;;5.70;88.10;;;;;;5033482;28;20037;-73
2023/05/04 05:15:33;;;;;;;19.00;7.68;;;5.70;88.20;;;;;;5013434;28;20091;-73
2023/05/04 05:17:59;;;;;;;15.85;7.30;;;5.80;88.20;;;;;;5013719;28;20128;-73
2023/05/04 05:20:24;;;;;;;12.38;7.15;;;5.80;88.20;;;;;;5030758;28;20480;-73
2023/05/04 05:22:50;;;;;;;16.10;6.95;;;5.90;88.00;;;;;;5014622;28;20044;-73
2023/05/04 05:25:17;;;;;;;14.10;7.28;;;5.90;87.70;;;;;;5016371;28;20038;-74
2023/05/04 05:27:43;;;;;;;17.60;7.50;;;6.00;87.30;;;;;;4996266;28;20033;-72
2023/05/04 05:30:10;;;;;;;15.45;6.90;;;6.00;87.20;;;;;;5014782;28;20469;-72
2023/05/04 05:32:36;;;;;;;12.90;6.65;;;6.10;87.20;;;;;;4996985;28;20189;-73
2023/05/04 05:35:05;;;;;;;15.98;7.00;;;6.10;86.90;;;;;;5005377;28;20046;-73
2023/05/04 05:37:31;;;;;;;16.73;7.53;;;6.20;86.90;;;;;;5016550;28;20045;-73
2023/05/04 05:39:57;;;;;;;17.35;7.30;;;6.20;86.70;;;;;;5012364;28;20050;-73
2023/05/04 05:42:23;;;;;;;15.75;6.82;;;6.30;86.70;;;;;;5016947;28;20049;-73
2023/05/04 05:44:49;;;;;;;17.35;7.80;;;6.40;86.50;;;;;;5030099;28;20529;-74
2023/05/04 05:47:15;;;;;;;17.75;7.25;;;6.50;86.40;;;;;;5013097;28;20045;-74
2023/05/04 05:49:41;;;;;;;17.55;7.47;;;6.50;86.40;;;;;;5007121;28;20508;-73
2023/05/04 05:52:07;;;;;;;16.27;7.10;;;6.60;86.20;;;;;;5007559;28;20076;-73
2023/05/04 05:54:34;;;;;;;14.35;7.10;;;6.70;86.00;;;;;;5007494;28;20383;-73
2023/05/04 05:57:00;;;;;;;13.85;5.85;;;6.80;85.90;;;;;;4989217;28;20046;-74
2023/05/04 05:59:26;;;;;;;16.98;6.97;;;6.90;85.60;;;;;;4991104;28;20048;-74
2023/05/04 06:01:52;;;;;;;15.57;7.50;;;6.90;85.40;;;;;;5005190;28;20033;-73
2023/05/04 06:04:17;;;;;;;14.00;6.05;;;7.00;85.30;;;;;;5007333;28;20056;-73
2023/05/04 06:06:43;;;;;;;16.30;7.22;;;7.10;85.20;;;;;;5008238;28;20046;-73
2023/05/04 06:09:08;;;;;;;13.63;6.72;;;7.20;85.70;;;;;;4991159;28;20133;-72
2023/05/04 06:11:34;;;;;;;18.20;7.25;;;7.40;84.80;;;;;;5010064;28;20071;-73
2023/05/04 06:14:00;;;;;;;14.27;6.32;;;7.50;84.70;;;;;;4989917;28;20386;-73
2023/05/04 06:16:25;;;;;;;13.63;6.60;;;7.60;84.60;;;;;;5005667;28;20176;-73
2023/05/04 06:18:51;;;;;;;18.20;6.72;;;7.70;84.30;;;;;;5007171;28;20072;-73
2023/05/04 06:21:16;;;;;;;14.68;7.45;;;7.80;83.80;;;;;;5003176;28;20466;-73
2023/05/04 06:23:42;;;;;;;14.70;7.40;;;7.90;84.00;;;;;;5005295;28;20040;-72
2023/05/04 06:26:08;;;;;;;16.88;7.13;;;8.10;84.00;;;;;;5007682;28;20040;-73
2023/05/04 06:28:34;;;;;;;14.55;7.53;;;8.30;83.90;;;;;;5005782;28;20470;-73
2023/05/04 06:31:00;;;;;;;15.23;7.20;;;8.30;83.70;;;;;;5008171;28;20042;-72
2023/05/04 06:33:26;;;;;;;17.65;7.00;;;8.50;83.70;;;;;;4986656;28;20038;-71
2023/05/04 06:35:52;;;;;;;10.80;6.43;;;8.50;82.50;;;;;;5004713;28;20390;-72
2023/05/04 06:38:18;;;;;;;13.45;6.90;;;8.60;82.50;;;;;;5014747;28;20081;-73
2023/05/04 06:40:44;;;;;;;12.52;6.82;;;8.70;82.30;;;;;;4992902;28;20056;-73
2023/05/04 06:43:10;;;;;;;13.45;6.93;;;8.80;82.10;;;;;;4993128;28;20375;-74
2023/05/04 06:45:35;;;;;;;12.45;7.10;;;8.90;81.70;;;;;;5004052;28;20057;-72
2023/05/04 06:48:02;;;;;;;13.63;7.18;;;8.90;80.80;;;;;;5010756;28;20041;-73
2023/05/04 06:50:27;;;;;;;13.93;6.50;;;9.00;80.80;;;;;;5006926;28;20056;-73
2023/05/04 06:53:02;;;;;;;11.07;6.78;;;9.10;80.40;;;;;;5007577;28;20046;-72
2023/05/04 06:55:28;;;;;;;11.13;6.68;;;9.20;78.00;;;;;;5003240;28;20481;-73
2023/05/04 06:57:53;;;;;;;15.50;7.28;;;9.40;79.50;;;;;;5018732;28;20048;-73
2023/05/04 07:00:19;;;;;;;13.38;6.95;;;9.50;79.20;;;;;;5026106;28;20057;-72
2023/05/04 07:02:45;;;;;;;14.73;5.97;;;9.70;78.40;;;;;;5006903;28;20034;-73
2023/05/04 07:05:11;;;;;;;13.45;6.60;;;9.80;78.40;;;;;;5044128;28;20048;-72
2023/05/04 07:07:37;;;;;;;13.18;7.03;;;9.90;77.60;;;;;;5000096;28;20033;-72
2023/05/04 07:10:03;;;;;;;12.63;6.38;;;10.00;77.00;;;;;;5006379;28;20076;-73
2023/05/04 07:12:28;;;;;;;10.68;6.78;;;10.10;76.10;;;;;;5008795;28;20072;-72
2023/05/04 07:14:54;;;;;;;10.95;6.53;;;10.30;76.00;;;;;;5016212;28;20480;-73
2023/05/04 07:17:20;;;;;;;13.80;6.85;;;10.30;75.20;;;;;;5016842;28;20497;-72
2023/05/04 07:19:50;;;;;;;11.32;5.95;;;10.50;74.90;;;;;;5001178;28;20373;-74
2023/05/04 07:22:16;;;;;;;13.40;6.32;;;10.60;74.40;;;;;;5010871;28;20041;-73
2023/05/04 07:24:42;;;;;;;10.93;5.75;;;10.80;73.80;;;;;;5012783;28;20037;-73
2023/05/04 07:27:07;;;;;;;10.95;6.18;;;11.00;73.50;;;;;;5003332;28;20034;-72
2023/05/04 07:29:34;;;;;;;13.88;7.00;;;11.10;72.80;;;;;;5011543;28;20777;-74
2023/05/04 07:32:00;;;;;;;11.40;5.85;;;11.20;71.60;;;;;;5013097;28;20469;-75
2023/05/04 07:34:25;;;;;;;13.68;6.15;;;11.30;71.50;;;;;;5014690;28;20052;-74
2023/05/04 07:36:51;;;;;;;11.52;6.28;;;11.30;70.90;;;;;;5025675;28;20385;-74
2023/05/04 07:39:16;;;;;;;14.02;6.25;;;11.40;70.40;;;;;;5001749;28;20050;-73
2023/05/04 07:41:42;;;;;;;11.50;5.80;;;11.50;69.40;;;;;;5017740;28;20128;-74
2023/05/04 07:44:10;;;;;;;9.45;5.80;;;11.60;69.90;;;;;;5020623;28;20042;-71
2023/05/04 07:46:36;;;;;;;9.80;6.13;;;11.80;69.70;;;;;;5015808;28;20038;-72
2023/05/04 07:49:01;;;;;;;11.70;5.68;;;11.80;68.90;;;;;;5012395;28;20056;-71
2023/05/04 07:51:27;;;;;;;12.73;6.25;;;11.90;68.20;;;;;;5012998;28;20038;-71
2023/05/04 07:53:53;;;;;;;7.80;5.47;;;12.10;67.80;;;;;;5018410;28;20072;-71
2023/05/04 07:56:18;;;;;;;15.18;6.45;;;12.30;68.00;;;;;;5020302;28;20048;-73
2023/05/04 07:58:44;;;;;;;11.32;6.55;;;12.50;66.80;;;;;;5029563;28;20041;-72
2023/05/04 08:01:10;;;;;;;9.98;6.18;;;12.60;66.30;;;;;;5013964;28;20034;-74
2023/05/04 08:03:35;;;;;;;11.00;5.53;;;12.80;66.30;;;;;;4995173;28;20283;-73
2023/05/04 08:06:01;;;;;;;12.57;5.78;;;12.90;65.50;;;;;;5013740;28;20048;-71
2023/05/04 08:08:27;;;;;;;10.60;5.68;;;13.00;65.60;;;;;;5018139;28;20045;-72
2023/05/04 08:10:52;;;;;;;14.10;5.78;;;13.20;64.80;;;;;;5014522;28;20038;-72
2023/05/04 08:13:18;;;;;;;10.35;5.47;;;13.70;64.60;;;;;;4995308;28;20132;-77
2023/05/04 08:15:44;;;;;;;10.45;6.05;;;13.90;64.30;;;;;;5008700;28;20026;-70
2023/05/04 08:18:09;;;;;;;8.52;5.07;;;14.20;62.90;;;;;;5017802;28;20515;-72
2023/05/04 08:20:35;;;;;;;9.23;5.10;;;14.20;62.80;;;;;;5009655;28;20046;-72
2023/05/04 08:23:02;;;;;;;8.05;5.28;;;14.40;61.90;;;;;;5008085;28;20116;-72
2023/05/04 08:25:28;;;;;;;10.27;5.10;;;14.50;61.30;;;;;;5014570;28;20045;-71
2023/05/04 08:27:55;;;;;;;9.68;5.00;;;15.00;60.00;;;;;;5017523;28;20045;-71
2023/05/04 08:30:20;;;;;;;7.97;5.57;;;15.30;59.50;;;;;;5008333;28;20127;-72
2023/05/04 08:32:47;;;;;;;12.25;6.13;;;15.50;58.50;;;;;;5010105;28;20099;-72
2023/05/04 08:35:12;;;;;;;9.77;4.95;;;15.70;57.10;;;;;;4994451;28;20042;-71
2023/05/04 08:37:38;;;;;;;6.90;5.18;;;15.60;56.60;;;;;;5044657;28;20050;-74
2023/05/04 08:40:04;;;;;;;10.57;5.40;;;15.80;55.60;;;;;;4992886;28;20421;-71
2023/05/04 08:42:31;;;;;;;9.45;5.13;;;16.00;55.80;;;;;;5009900;28;20042;-73
2023/05/04 08:44:57;;;;;;;10.38;5.63;;;15.90;54.00;;;;;;4991687;28;20258;-76
2023/05/04 08:47:24;;;;;;;7.40;4.82;;;15.90;53.30;;;;;;5035658;28;20420;-74
2023/05/04 08:49:51;;;;;;;8.93;5.05;;;16.10;53.80;;;;;;5002909;28;20048;-72
2023/05/04 08:52:18;;;;;;;10.98;5.50;;;16.30;53.80;;;;;;4988803;28;20041;-73
2023/05/04 08:54:45;;;;;;;9.10;4.95;;;16.20;52.40;;;;;;5019188;28;20072;-70
2023/05/04 08:57:11;;;;;;;8.82;4.82;;;16.40;52.90;;;;;;5018737;28;20095;-75
2023/05/04 08:59:37;;;;;;;8.13;5.18;;;16.30;50.90;;;;;;5010703;28;20041;-73
2023/05/04 09:02:03;;;;;;;8.65;4.75;;;16.40;50.90;;;;;;5016107;28;22052;-72
2023/05/04 09:04:30;;;;;;;8.40;4.82;;;16.80;50.90;;;;;;5010911;28;20029;-70
2023/05/04 09:06:57;;;;;;;9.77;5.20;;;17.30;49.50;;;;;;5024821;28;20046;-73
2023/05/04 09:09:26;;;;;;;8.60;5.28;;;17.50;49.90;;;;;;5011930;28;20045;-72
2023/05/04 09:11:52;;;;;;;10.48;5.07;;;17.50;48.60;;;;;;5005445;28;20038;-71
2023/05/04 09:14:17;;;;;;;8.70;4.95;;;17.60;48.90;;;;;;5012067;28;20045;-73
2023/05/04 09:16:43;;;;;;;8.73;4.72;;;17.70;48.00;;;;;;5010121;28;20073;-72
2023/05/04 09:19:19;;;;;;;7.93;5.13;;;17.80;48.20;;;;;;5007702;28;20129;-73
2023/05/04 09:21:46;;;;;;;8.75;5.78;;;17.60;46.20;;;;;;5015790;28;20045;-72
2023/05/04 09:24:11;;;;;;;7.00;4.95;;;17.50;48.30;;;;;;5019873;28;20180;-71
2023/05/04 09:26:38;;;;;;;8.32;5.13;;;17.40;48.80;;;;;;5012394;28;20140;-70
2023/05/04 09:29:13;;;;;;;7.55;5.00;;;17.60;48.20;;;;;;5018888;28;20042;-71
2023/05/04 09:31:50;;;;;;;7.57;5.13;;;17.60;46.10;;;;;;5001460;28;20057;-73
2023/05/04 09:34:17;;;;;;;10.35;4.82;;;17.70;45.60;;;;;;5010518;28;20048;-73
2023/05/04 09:36:42;;;;;;;10.45;5.25;;;17.90;46.60;;;;;;5026637;28;20041;-70
2023/05/04 09:39:12;;;;;;;8.93;5.55;;;18.00;46.70;;;;;;5019847;28;20559;-73
2023/05/04 09:41:38;;;;;;;10.25;5.85;;;17.80;45.10;;;;;;5002667;28;20046;-72
2023/05/04 09:44:04;;;;;;;8.35;5.00;;;17.70;45.80;;;;;;5009420;28;20072;-71
2023/05/04 09:46:30;;;;;;;9.85;5.10;;;17.50;45.90;;;;;;5016618;28;20049;-71
2023/05/04 09:48:56;;;;;;;10.60;5.43;;;17.30;45.20;;;;;;5006922;28;20421;-72
2023/05/04 09:51:23;;;;;;;8.18;5.60;;;17.40;45.60;;;;;;5015540;28;20037;-73
2023/05/04 09:53:50;;;;;;;7.20;5.28;;;17.60;45.60;;;;;;5001563;28;20059;-71
2023/05/04 09:56:28;;;;;;;10.00;4.75;;;17.70;45.40;;;;;;5010234;28;20057;-72
2023/05/04 09:58:57;;;;;;;7.78;5.20;;;17.70;44.00;;;;;;5011880;28;20579;-71
2023/05/04 10:01:28;;;;;;;5.70;4.40;;;18.20;44.80;;;;;;4994582;28;20639;-71
2023/05/04 10:03:54;;;;;;;11.85;5.47;;;18.50;44.30;;;;;;5024164;28;20049;-72
2023/05/04 10:06:20;;;;;;;9.93;5.53;;;18.80;43.70;;;;;;5021865;28;20041;-75
2023/05/04 10:08:48;;;;;;;11.80;5.80;;;19.20;42.30;;;;;;5009810;28;20128;-74
2023/05/04 10:11:17;;;;;;;7.38;5.32;;;19.30;41.50;;;;;;5009510;28;20056;-72
2023/05/04 10:13:49;;;;;;;11.15;5.13;;;19.40;41.30;;;;;;5008937;28;20045;-72
2023/05/04 10:16:43;;;;;;;11.40;5.20;;;19.40;41.30;;;;;;5018043;28;20417;-71
2023/05/04 10:19:39;;;;;;;9.63;5.30;;;19.50;40.80;;;;;;5016433;28;20518;-70
2023/05/04 10:22:36;;;;;;;8.32;5.63;;;19.00;40.50;;;;;;5028864;28;20033;-73
2023/05/04 10:25:23;;;;;;;9.30;5.15;;;19.10;40.20;;;;;;5016429;28;20104;-71
2023/05/04 10:28:03;;;;;;;9.45;4.90;;;19.30;42.00;;;;;;5004760;28;20050;-72
2023/05/04 10:30:29;;;;;;;6.43;4.50;;;19.70;40.70;;;;;;4999635;28;20053;-74
2023/05/04 10:32:58;;;;;;;10.88;5.10;;;20.00;40.80;;;;;;5012432;28;20520;-73
2023/05/04 10:35:24;;;;;;;9.63;4.85;;;20.50;40.30;;;;;;5013572;28;20068;-73
2023/05/04 10:37:54;;;;;;;8.32;5.30;;;20.40;40.30;;;;;;5025315;28;20045;-71
2023/05/04 10:40:32;;;;;;;6.30;4.35;;;20.10;41.00;;;;;;5018673;28;20049;-77
2023/05/04 10:42:57;;;;;;;11.25;6.13;;;19.80;39.20;;;;;;5002144;28;20037;-72
2023/05/04 10:45:34;;;;;;;8.43;5.30;;;19.20;42.00;;;;;;5026823;28;20381;-71
2023/05/04 10:48:00;;;;;;;7.53;4.47;;;18.80;42.30;;;;;;4993232;28;20034;-73
2023/05/04 10:50:25;;;;;;;7.82;4.53;;;18.90;42.50;;;;;;4993419;28;20048;-72
2023/05/04 10:52:52;;;;;;;5.50;3.70;;;18.90;42.50;;;;;;4991890;28;20496;-71
2023/05/04 10:55:19;;;;;;;7.28;4.20;;;19.00;42.30;;;;;;4993351;28;20179;-73
2023/05/04 10:57:48;;;;;;;8.27;4.30;;;18.80;42.50;;;;;;5005502;28;20045;-70
2023/05/04 11:00:15;;;;;;;7.03;4.43;;;18.70;42.00;;;;;;5008055;28;20042;-72
2023/05/04 11:02:41;;;;;;;8.32;4.20;;;18.60;42.20;;;;;;4994578;28;20336;-73
2023/05/04 11:05:07;;;;;;;8.38;4.50;;;18.70;41.70;;;;;;5016874;28;20536;-74
2023/05/04 11:07:37;;;;;;;12.18;4.47;;;18.30;41.00;;;;;;5013239;28;20553;-72
2023/05/04 11:10:08;;;;;;;9.65;4.18;;;18.60;41.10;;;;;;5011919;28;20406;-71
2023/05/04 11:12:36;;;;;;;5.97;3.45;;;18.60;40.90;;;;;;5011516;28;20041;-76
2023/05/04 11:15:06;;;;;;;8.25;4.10;;;18.70;40.40;;;;;;5030660;28;20121;-72
2023/05/04 11:17:32;;;;;;;7.70;4.40;;;18.60;40.50;;;;;;5024685;28;20053;-73
2023/05/04 11:19:59;;;;;;;4.47;3.30;;;18.40;40.60;;;;;;5007676;28;20040;-73
2023/05/04 11:22:25;;;;;;;9.15;3.42;;;18.50;39.70;;;;;;4995882;28;20041;-72
2023/05/04 11:24:51;;;;;;;5.28;3.85;;;18.50;39.60;;;;;;5010300;28;20318;-70
2023/05/04 11:27:27;;;;;;;6.13;3.65;;;18.50;39.90;;;;;;5003470;28;20044;-71
2023/05/04 11:30:01;;;;;;;15.18;4.65;;;18.70;40.80;;;;;;5021383;28;20551;-72
2023/05/04 11:32:45;;;;;;;7.93;4.45;;;18.90;39.90;;;;;;5019380;28;20061;-72
2023/05/04 11:35:19;;;;;;;6.55;3.78;;;18.80;38.60;;;;;;5014665;28;20037;-68
2023/05/04 11:37:45;;;;;;;8.77;4.43;;;18.80;40.10;;;;;;5013353;28;20045;-70
2023/05/04 11:40:16;;;;;;;9.00;3.88;;;18.90;39.30;;;;;;5029129;28;20052;-69
2023/05/04 11:42:43;;;;;;;6.47;3.83;;;19.10;38.00;;;;;;5029657;28;20033;-74
2023/05/04 11:45:21;;;;;;;5.93;3.83;;;19.10;39.50;;;;;;5013609;28;20033;-72
2023/05/04 11:47:48;;;;;;;9.95;3.63;;;19.20;35.90;;;;;;5031396;28;20041;-74
2023/05/04 11:50:17;;;;;;;9.25;3.88;;;19.30;37.70;;;;;;5025502;28;20052;-69
2023/05/04 11:52:43;;;;;;;6.40;3.88;;;19.00;38.30;;;;;;5026579;28;20511;-72
2023/05/04 11:55:10;;;;;;;5.32;3.58;;;18.90;39.10;;;;;;5010430;28;20053;-73
2023/05/04 11:57:36;;;;;;;5.35;3.55;;;19.10;38.40;;;;;;5026307;28;20050;-73
2023/05/04 12:00:07;;;;;;;8.45;3.55;;;19.10;38.80;;;;;;5020711;28;20411;-71
2023/05/04 12:02:34;;;;;;;7.45;3.90;;;19.40;38.10;;;;;;4993348;28;20033;-72
2023/05/04 12:05:00;;;;;;;5.95;4.10;;;19.40;37.90;;;;;;5009183;28;20041;-71
2023/05/04 12:07:27;;;;;;;6.15;3.22;;;19.40;38.10;;;;;;5007828;28;20045;-72
2023/05/04 12:09:52;;;;;;;8.48;3.55;;;19.40;37.50;;;;;;4992526;28;20117;-72
2023/05/04 12:12:20;;;;;;;5.60;3.58;;;19.50;36.90;;;;;;5029440;28;20175;-72
2023/05/04 12:14:47;;;;;;;6.97;4.10;;;19.30;37.10;;;;;;5023981;28;20046;-72
2023/05/04 12:17:12;;;;;;;5.50;3.40;;;19.30;36.70;;;;;;5011375;28;20120;-71
2023/05/04 12:19:52;;;;;;;6.55;2.97;;;19.30;36.60;;;;;;5007789;28;20256;-74
2023/05/04 12:22:27;;;;;;;6.75;3.55;;;19.60;35.50;;;;;;5023897;28;20202;-70
2023/05/04 12:24:53;;;;;;;8.93;3.40;;;20.00;35.40;;;;;;5031820;28;20413;-72
2023/05/04 12:27:18;;;;;;;5.35;3.33;;;20.30;36.00;;;;;;5014995;28;20037;-73
2023/05/04 12:29:44;;;;;;;6.28;3.47;;;20.50;36.30;;;;;;4995079;28;20096;-74
2023/05/04 12:32:10;;;;;;;5.65;3.50;;;20.50;35.10;;;;;;5007939;28;20524;-73
2023/05/04 12:34:37;;;;;;;5.50;3.60;;;20.50;35.40;;;;;;5007270;28;20041;-72
2023/05/04 12:37:03;;;;;;;4.85;3.33;;;20.70;35.90;;;;;;5026355;28;20100;-74
2023/05/04 12:39:30;;;;;;;5.93;2.83;;;20.90;35.40;;;;;;4993245;28;20514;-72
2023/05/04 12:41:56;;;;;;;3.80;2.83;;;21.50;34.70;;;;;;5026892;28;20042;-73
2023/05/04 12:44:22;;;;;;;8.02;2.95;;;22.60;32.80;;;;;;5016394;28;20069;-73